sensor_id;sensor_type;location;lat;lon;timestamp;P1;durP1;ratioP1;P2;durP2;ratioP2
41861;SDS011;27537;57.134;-2.136;2023-07-20T00:00:06;3.63;;;1.30;;
41861;SDS011;27537;57.134;-2.136;2023-07-20T00:02:33;6.38;;;1.33;;
41861;SDS011;27537;57.134;-2.136;2023-07-20T00:04:59;4.20;;;1.52;;
41861;SDS011;27537;57.134;-2.136;2023-07-20T00:07:26;5.57;;;1.80;;
41861;SDS011;27537;57.134;-2.136;2023-07-20T00:09:53;5.05;;;1.73;;
41861;SDS011;27537;57.134;-2.136;2023-07-20T00:12:20;4.63;;;1.60;;
41861;SDS011;27537;57.134;-2.136;2023-07-20T00:14:46;7.47;;;2.10;;
41861;SDS011;27537;57.134;-2.136;2023-07-20T00:17:13;7.13;;;2.17;;
41861;SDS011;27537;57.134;-2.136;2023-07-20T00:19:39;5.10;;;1.88;;
41861;SDS011;27537;57.134;-2.136;2023-07-20T00:22:06;4.28;;;1.60;;
41861;SDS011;27537;57.134;-2.136;2023-07-20T00:24:33;4.40;;;1.60;;
41861;SDS011;27537;57.134;-2.136;2023-07-20T00:26:59;4.75;;;1.50;;
41861;SDS011;27537;57.134;-2.136;2023-07-20T00:29:27;4.72;;;1.70;;
41861;SDS011;27537;57.134;-2.136;2023-07-20T00:31:54;4.68;;;1.55;;
41861;SDS011;27537;57.134;-2.136;2023-07-20T00:34:21;5.22;;;1.80;;
41861;SDS011;27537;57.134;-2.136;2023-07-20T00:36:47;5.63;;;1.42;;
41861;SDS011;27537;57.134;-2.136;2023-07-20T00:39:15;4.75;;;1.50;;
41861;SDS011;27537;57.134;-2.136;2023-07-20T00:41:42;4.72;;;1.70;;
41861;SDS011;27537;57.134;-2.136;2023-07-20T00:44:09;4.82;;;1.70;;
41861;SDS011;27537;57.134;-2.136;2023-07-20T00:46:35;4.65;;;1.55;;
41861;SDS011;27537;57.134;-2.136;2023-07-20T00:49:02;4.57;;;1.70;;
41861;SDS011;27537;57.134;-2.136;2023-07-20T00:51:29;4.20;;;1.60;;
41861;SDS011;27537;57.134;-2.136;2023-07-20T00:53:56;4.15;;;1.50;;
41861;SDS011;27537;57.134;-2.136;2023-07-20T00:56:24;6.15;;;1.85;;
41861;SDS011;27537;57.134;-2.136;2023-07-20T00:58:52;6.88;;;1.73;;
41861;SDS011;27537;57.134;-2.136;2023-07-20T01:01:18;4.63;;;1.80;;
41861;SDS011;27537;57.134;-2.136;2023-07-20T01:03:45;4.95;;;1.70;;
41861;SDS011;27537;57.134;-2.136;2023-07-20T01:06:15;4.57;;;1.80;;
41861;SDS011;27537;57.134;-2.136;2023-07-20T01:14:58;8.27;;;2.08;;
41861;SDS011;27537;57.134;-2.136;2023-07-20T01:17:25;4.65;;;1.60;;
41861;SDS011;27537;57.134;-2.136;2023-07-20T01:19:52;6.22;;;1.70;;
41861;SDS011;27537;57.134;-2.136;2023-07-20T01:22:21;5.28;;;1.50;;
41861;SDS011;27537;57.134;-2.136;2023-07-20T01:24:53;3.95;;;1.40;;
41861;SDS011;27537;57.134;-2.136;2023-07-20T01:33:08;4.25;;;1.52;;
41861;SDS011;27537;57.134;-2.136;2023-07-20T01:35:38;5.00;;;1.73;;
41861;SDS011;27537;57.134;-2.136;2023-07-20T01:38:07;6.57;;;1.88;;
41861;SDS011;27537;57.134;-2.136;2023-07-20T01:40:35;5.65;;;2.20;;
41861;SDS011;27537;57.134;-2.136;2023-07-20T01:43:02;6.47;;;1.85;;
41861;SDS011;27537;57.134;-2.136;2023-07-20T01:45:29;5.53;;;2.05;;
41861;SDS011;27537;57.134;-2.136;2023-07-20T01:47:56;6.82;;;2.40;;
41861;SDS011;27537;57.134;-2.136;2023-07-20T01:50:23;5.72;;;1.70;;
41861;SDS011;27537;57.134;-2.136;2023-07-20T01:52:50;5.95;;;2.22;;
41861;SDS011;27537;57.134;-2.136;2023-07-20T01:55:17;6.35;;;2.22;;
41861;SDS011;27537;57.134;-2.136;2023-07-20T01:57:44;6.95;;;2.63;;
41861;SDS011;27537;57.134;-2.136;2023-07-20T02:00:10;8.30;;;3.22;;
41861;SDS011;27537;57.134;-2.136;2023-07-20T02:02:38;8.32;;;3.08;;
41861;SDS011;27537;57.134;-2.136;2023-07-20T02:05:05;8.13;;;3.00;;
41861;SDS011;27537;57.134;-2.136;2023-07-20T02:07:32;7.93;;;3.00;;
41861;SDS011;27537;57.134;-2.136;2023-07-20T02:09:59;9.30;;;3.00;;
41861;SDS011;27537;57.134;-2.136;2023-07-20T02:12:26;10.27;;;3.40;;
41861;SDS011;27537;57.134;-2.136;2023-07-20T02:14:52;8.30;;;2.70;;
41861;SDS011;27537;57.134;-2.136;2023-07-20T02:17:19;7.65;;;3.00;;
41861;SDS011;27537;57.134;-2.136;2023-07-20T02:19:46;11.75;;;3.20;;
41861;SDS011;27537;57.134;-2.136;2023-07-20T02:22:15;9.02;;;3.45;;
41861;SDS011;27537;57.134;-2.136;2023-07-20T02:24:43;6.53;;;2.20;;
41861;SDS011;27537;57.134;-2.136;2023-07-20T02:27:09;7.38;;;2.58;;
41861;SDS011;27537;57.134;-2.136;2023-07-20T02:29:36;7.88;;;2.70;;
41861;SDS011;27537;57.134;-2.136;2023-07-20T02:32:03;7.40;;;2.60;;
41861;SDS011;27537;57.134;-2.136;2023-07-20T02:34:30;7.10;;;2.28;;
41861;SDS011;27537;57.134;-2.136;2023-07-20T02:36:57;7.53;;;2.58;;
41861;SDS011;27537;57.134;-2.136;2023-07-20T02:39:25;9.48;;;3.08;;
41861;SDS011;27537;57.134;-2.136;2023-07-20T02:41:53;7.65;;;2.92;;
41861;SDS011;27537;57.134;-2.136;2023-07-20T02:44:20;9.35;;;3.42;;
41861;SDS011;27537;57.134;-2.136;2023-07-20T02:46:47;11.18;;;3.60;;
41861;SDS011;27537;57.134;-2.136;2023-07-20T02:49:15;8.90;;;3.50;;
41861;SDS011;27537;57.134;-2.136;2023-07-20T02:51:42;8.60;;;3.75;;
41861;SDS011;27537;57.134;-2.136;2023-07-20T02:54:09;12.57;;;5.07;;
41861;SDS011;27537;57.134;-2.136;2023-07-20T02:56:36;10.13;;;4.63;;
41861;SDS011;27537;57.134;-2.136;2023-07-20T02:59:02;10.40;;;3.88;;
41861;SDS011;27537;57.134;-2.136;2023-07-20T03:01:29;10.73;;;4.93;;
41861;SDS011;27537;57.134;-2.136;2023-07-20T03:03:56;12.50;;;5.50;;
41861;SDS011;27537;57.134;-2.136;2023-07-20T03:06:22;13.13;;;6.82;;
41861;SDS011;27537;57.134;-2.136;2023-07-20T03:08:49;13.05;;;6.40;;
41861;SDS011;27537;57.134;-2.136;2023-07-20T03:11:18;13.43;;;6.50;;
41861;SDS011;27537;57.134;-2.136;2023-07-20T03:13:46;14.48;;;7.32;;
41861;SDS011;27537;57.134;-2.136;2023-07-20T03:16:13;14.80;;;7.15;;
41861;SDS011;27537;57.134;-2.136;2023-07-20T03:18:44;12.27;;;6.78;;
41861;SDS011;27537;57.134;-2.136;2023-07-20T03:21:11;16.67;;;8.57;;
41861;SDS011;27537;57.134;-2.136;2023-07-20T03:23:38;14.20;;;7.90;;
41861;SDS011;27537;57.134;-2.136;2023-07-20T03:26:06;14.00;;;7.95;;
41861;SDS011;27537;57.134;-2.136;2023-07-20T03:28:35;14.93;;;8.30;;
41861;SDS011;27537;57.134;-2.136;2023-07-20T03:31:02;15.65;;;8.65;;
41861;SDS011;27537;57.134;-2.136;2023-07-20T03:33:29;16.13;;;7.82;;
41861;SDS011;27537;57.134;-2.136;2023-07-20T03:35:57;13.43;;;7.57;;
41861;SDS011;27537;57.134;-2.136;2023-07-20T03:38:25;15.57;;;8.65;;
41861;SDS011;27537;57.134;-2.136;2023-07-20T03:40:52;16.55;;;8.10;;
41861;SDS011;27537;57.134;-2.136;2023-07-20T03:43:21;13.80;;;7.82;;
41861;SDS011;27537;57.134;-2.136;2023-07-20T03:45:49;12.68;;;6.75;;
41861;SDS011;27537;57.134;-2.136;2023-07-20T03:48:20;12.02;;;6.53;;
41861;SDS011;27537;57.134;-2.136;2023-07-20T03:50:49;17.45;;;9.75;;
41861;SDS011;27537;57.134;-2.136;2023-07-20T03:53:16;15.93;;;8.98;;
41861;SDS011;27537;57.134;-2.136;2023-07-20T03:55:44;13.95;;;7.47;;
41861;SDS011;27537;57.134;-2.136;2023-07-20T03:58:13;16.02;;;8.20;;
41861;SDS011;27537;57.134;-2.136;2023-07-20T04:00:42;21.52;;;10.52;;
41861;SDS011;27537;57.134;-2.136;2023-07-20T04:03:13;17.35;;;11.13;;
41861;SDS011;27537;57.134;-2.136;2023-07-20T04:05:40;17.67;;;10.45;;
41861;SDS011;27537;57.134;-2.136;2023-07-20T04:08:07;18.42;;;11.70;;
41861;SDS011;27537;57.134;-2.136;2023-07-20T04:10:35;18.38;;;11.20;;
41861;SDS011;27537;57.134;-2.136;2023-07-20T04:13:01;18.70;;;12.02;;
41861;SDS011;27537;57.134;-2.136;2023-07-20T04:15:28;20.00;;;11.80;;
41861;SDS011;27537;57.134;-2.136;2023-07-20T04:17:55;18.25;;;10.75;;
41861;SDS011;27537;57.134;-2.136;2023-07-20T04:20:23;20.50;;;11.75;;
41861;SDS011;27537;57.134;-2.136;2023-07-20T04:22:50;20.92;;;10.73;;
41861;SDS011;27537;57.134;-2.136;2023-07-20T04:25:17;19.33;;;9.90;;
41861;SDS011;27537;57.134;-2.136;2023-07-20T04:27:44;17.50;;;10.25;;
41861;SDS011;27537;57.134;-2.136;2023-07-20T04:30:11;16.20;;;10.18;;
41861;SDS011;27537;57.134;-2.136;2023-07-20T04:32:39;21.58;;;11.80;;
41861;SDS011;27537;57.134;-2.136;2023-07-20T04:35:16;20.35;;;11.45;;
41861;SDS011;27537;57.134;-2.136;2023-07-20T04:38:02;19.20;;;11.18;;
41861;SDS011;27537;57.134;-2.136;2023-07-20T04:40:28;19.70;;;11.48;;
41861;SDS011;27537;57.134;-2.136;2023-07-20T04:42:55;18.70;;;10.60;;
41861;SDS011;27537;57.134;-2.136;2023-07-20T04:45:22;20.08;;;11.93;;
41861;SDS011;27537;57.134;-2.136;2023-07-20T04:47:50;20.60;;;12.38;;
41861;SDS011;27537;57.134;-2.136;2023-07-20T04:50:17;18.58;;;12.10;;
41861;SDS011;27537;57.134;-2.136;2023-07-20T04:52:44;17.88;;;10.75;;
41861;SDS011;27537;57.134;-2.136;2023-07-20T04:55:12;21.48;;;12.25;;
41861;SDS011;27537;57.134;-2.136;2023-07-20T04:57:39;19.48;;;10.40;;
41861;SDS011;27537;57.134;-2.136;2023-07-20T05:00:06;16.83;;;9.90;;
41861;SDS011;27537;57.134;-2.136;2023-07-20T05:02:33;14.75;;;8.90;;
41861;SDS011;27537;57.134;-2.136;2023-07-20T05:05:00;18.30;;;10.00;;
41861;SDS011;27537;57.134;-2.136;2023-07-20T05:07:27;17.98;;;10.55;;
41861;SDS011;27537;57.134;-2.136;2023-07-20T05:09:54;18.38;;;10.13;;
41861;SDS011;27537;57.134;-2.136;2023-07-20T05:12:20;15.73;;;8.73;;
41861;SDS011;27537;57.134;-2.136;2023-07-20T05:14:47;16.13;;;8.88;;
41861;SDS011;27537;57.134;-2.136;2023-07-20T05:17:14;16.83;;;7.90;;
41861;SDS011;27537;57.134;-2.136;2023-07-20T05:19:40;13.50;;;7.57;;
41861;SDS011;27537;57.134;-2.136;2023-07-20T05:22:10;15.38;;;7.78;;
41861;SDS011;27537;57.134;-2.136;2023-07-20T05:24:40;14.45;;;8.65;;
41861;SDS011;27537;57.134;-2.136;2023-07-20T05:27:06;14.10;;;7.60;;
41861;SDS011;27537;57.134;-2.136;2023-07-20T05:29:33;16.08;;;9.25;;
41861;SDS011;27537;57.134;-2.136;2023-07-20T05:32:00;14.50;;;8.27;;
41861;SDS011;27537;57.134;-2.136;2023-07-20T05:34:27;16.67;;;8.88;;
41861;SDS011;27537;57.134;-2.136;2023-07-20T05:36:54;17.23;;;9.00;;
41861;SDS011;27537;57.134;-2.136;2023-07-20T05:39:21;15.30;;;8.52;;
41861;SDS011;27537;57.134;-2.136;2023-07-20T05:41:48;17.73;;;9.55;;
41861;SDS011;27537;57.134;-2.136;2023-07-20T05:44:14;18.90;;;9.80;;
41861;SDS011;27537;57.134;-2.136;2023-07-20T05:46:41;16.45;;;8.15;;
41861;SDS011;27537;57.134;-2.136;2023-07-20T05:49:23;20.95;;;8.20;;
41861;SDS011;27537;57.134;-2.136;2023-07-20T05:51:49;14.88;;;7.68;;
41861;SDS011;27537;57.134;-2.136;2023-07-20T05:54:16;16.17;;;9.00;;
41861;SDS011;27537;57.134;-2.136;2023-07-20T05:56:45;18.63;;;8.80;;
41861;SDS011;27537;57.134;-2.136;2023-07-20T05:59:12;16.73;;;8.32;;
41861;SDS011;27537;57.134;-2.136;2023-07-20T06:01:39;14.75;;;7.40;;
41861;SDS011;27537;57.134;-2.136;2023-07-20T06:04:06;14.15;;;7.57;;
41861;SDS011;27537;57.134;-2.136;2023-07-20T06:06:33;11.55;;;5.70;;
41861;SDS011;27537;57.134;-2.136;2023-07-20T06:09:00;13.68;;;5.32;;
41861;SDS011;27537;57.134;-2.136;2023-07-20T06:11:30;12.20;;;5.20;;
41861;SDS011;27537;57.134;-2.136;2023-07-20T06:13:57;10.55;;;4.78;;
41861;SDS011;27537;57.134;-2.136;2023-07-20T06:16:24;9.65;;;4.18;;
41861;SDS011;27537;57.134;-2.136;2023-07-20T06:18:51;11.45;;;4.78;;
41861;SDS011;27537;57.134;-2.136;2023-07-20T06:21:18;9.98;;;4.43;;
41861;SDS011;27537;57.134;-2.136;2023-07-20T06:23:44;9.45;;;3.88;;
41861;SDS011;27537;57.134;-2.136;2023-07-20T06:26:11;9.52;;;3.70;;
41861;SDS011;27537;57.134;-2.136;2023-07-20T06:28:38;10.23;;;3.85;;
41861;SDS011;27537;57.134;-2.136;2023-07-20T06:31:04;11.00;;;3.40;;
41861;SDS011;27537;57.134;-2.136;2023-07-20T06:33:31;9.73;;;3.28;;
41861;SDS011;27537;57.134;-2.136;2023-07-20T06:35:58;9.88;;;3.20;;
41861;SDS011;27537;57.134;-2.136;2023-07-20T06:38:25;7.60;;;2.78;;
41861;SDS011;27537;57.134;-2.136;2023-07-20T06:40:55;7.95;;;2.35;;
41861;SDS011;27537;57.134;-2.136;2023-07-20T06:43:21;11.05;;;2.72;;
41861;SDS011;27537;57.134;-2.136;2023-07-20T06:45:54;7.28;;;2.33;;
41861;SDS011;27537;57.134;-2.136;2023-07-20T06:48:21;11.43;;;2.42;;
41861;SDS011;27537;57.134;-2.136;2023-07-20T06:50:48;9.13;;;2.53;;
41861;SDS011;27537;57.134;-2.136;2023-07-20T06:53:15;7.90;;;2.60;;
41861;SDS011;27537;57.134;-2.136;2023-07-20T06:55:42;6.63;;;1.95;;
41861;SDS011;27537;57.134;-2.136;2023-07-20T06:58:09;5.60;;;1.80;;
41861;SDS011;27537;57.134;-2.136;2023-07-20T07:00:36;7.63;;;1.85;;
41861;SDS011;27537;57.134;-2.136;2023-07-20T07:03:03;7.82;;;1.92;;
41861;SDS011;27537;57.134;-2.136;2023-07-20T07:05:30;8.02;;;1.98;;
41861;SDS011;27537;57.134;-2.136;2023-07-20T07:08:02;8.38;;;2.28;;
41861;SDS011;27537;57.134;-2.136;2023-07-20T07:10:29;7.85;;;1.88;;
41861;SDS011;27537;57.134;-2.136;2023-07-20T07:12:55;7.10;;;2.33;;
41861;SDS011;27537;57.134;-2.136;2023-07-20T07:15:22;5.43;;;1.63;;
41861;SDS011;27537;57.134;-2.136;2023-07-20T07:17:49;4.97;;;1.45;;
41861;SDS011;27537;57.134;-2.136;2023-07-20T07:20:16;8.05;;;1.75;;
41861;SDS011;27537;57.134;-2.136;2023-07-20T07:22:46;8.35;;;2.22;;
41861;SDS011;27537;57.134;-2.136;2023-07-20T07:25:14;7.20;;;2.00;;
41861;SDS011;27537;57.134;-2.136;2023-07-20T07:27:48;8.13;;;2.13;;
41861;SDS011;27537;57.134;-2.136;2023-07-20T07:30:15;9.20;;;2.17;;
41861;SDS011;27537;57.134;-2.136;2023-07-20T07:32:41;10.10;;;2.45;;
41861;SDS011;27537;57.134;-2.136;2023-07-20T07:35:08;7.82;;;2.35;;
41861;SDS011;27537;57.134;-2.136;2023-07-20T07:37:35;11.52;;;2.45;;
41861;SDS011;27537;57.134;-2.136;2023-07-20T07:40:22;8.88;;;2.40;;
41861;SDS011;27537;57.134;-2.136;2023-07-20T07:42:49;9.55;;;2.50;;
41861;SDS011;27537;57.134;-2.136;2023-07-20T07:45:15;7.55;;;2.30;;
41861;SDS011;27537;57.134;-2.136;2023-07-20T07:47:43;9.95;;;2.70;;
41861;SDS011;27537;57.134;-2.136;2023-07-20T07:50:10;8.00;;;2.53;;
41861;SDS011;27537;57.134;-2.136;2023-07-20T07:52:36;8.70;;;2.45;;
41861;SDS011;27537;57.134;-2.136;2023-07-20T07:55:03;7.60;;;2.42;;
41861;SDS011;27537;57.134;-2.136;2023-07-20T07:57:31;6.32;;;2.30;;
41861;SDS011;27537;57.134;-2.136;2023-07-20T07:59:58;9.50;;;2.42;;
41861;SDS011;27537;57.134;-2.136;2023-07-20T08:02:24;7.03;;;2.28;;
41861;SDS011;27537;57.134;-2.136;2023-07-20T08:04:51;8.18;;;2.80;;
41861;SDS011;27537;57.134;-2.136;2023-07-20T08:07:18;8.82;;;2.35;;
41861;SDS011;27537;57.134;-2.136;2023-07-20T08:09:45;7.32;;;2.53;;
41861;SDS011;27537;57.134;-2.136;2023-07-20T08:12:12;8.35;;;2.83;;
41861;SDS011;27537;57.134;-2.136;2023-07-20T08:14:39;7.10;;;2.40;;
41861;SDS011;27537;57.134;-2.136;2023-07-20T08:17:06;8.70;;;2.63;;
41861;SDS011;27537;57.134;-2.136;2023-07-20T08:19:33;7.85;;;2.85;;
41861;SDS011;27537;57.134;-2.136;2023-07-20T08:22:01;8.98;;;3.28;;
41861;SDS011;27537;57.134;-2.136;2023-07-20T08:24:29;8.80;;;2.78;;
41861;SDS011;27537;57.134;-2.136;2023-07-20T08:26:55;9.82;;;2.78;;
41861;SDS011;27537;57.134;-2.136;2023-07-20T08:29:22;10.95;;;3.30;;
41861;SDS011;27537;57.134;-2.136;2023-07-20T08:31:50;14.35;;;3.65;;
41861;SDS011;27537;57.134;-2.136;2023-07-20T08:34:17;9.25;;;3.22;;
41861;SDS011;27537;57.134;-2.136;2023-07-20T08:36:57;8.65;;;3.00;;
41861;SDS011;27537;57.134;-2.136;2023-07-20T08:39:25;9.18;;;3.47;;
41861;SDS011;27537;57.134;-2.136;2023-07-20T08:41:51;11.80;;;3.88;;
41861;SDS011;27537;57.134;-2.136;2023-07-20T08:44:18;10.73;;;3.83;;
41861;SDS011;27537;57.134;-2.136;2023-07-20T08:46:45;11.32;;;3.00;;
41861;SDS011;27537;57.134;-2.136;2023-07-20T08:49:14;9.02;;;3.30;;
41861;SDS011;27537;57.134;-2.136;2023-07-20T08:51:45;14.68;;;3.95;;
41861;SDS011;27537;57.134;-2.136;2023-07-20T08:54:13;8.88;;;3.60;;
41861;SDS011;27537;57.134;-2.136;2023-07-20T08:56:41;11.20;;;4.50;;
41861;SDS011;27537;57.134;-2.136;2023-07-20T08:59:08;14.52;;;4.63;;
41861;SDS011;27537;57.134;-2.136;2023-07-20T09:01:36;9.45;;;4.25;;
41861;SDS011;27537;57.134;-2.136;2023-07-20T09:04:05;10.25;;;4.82;;
41861;SDS011;27537;57.134;-2.136;2023-07-20T09:06:32;10.88;;;5.15;;
41861;SDS011;27537;57.134;-2.136;2023-07-20T09:09:01;10.77;;;5.38;;
41861;SDS011;27537;57.134;-2.136;2023-07-20T09:11:28;12.07;;;5.57;;
41861;SDS011;27537;57.134;-2.136;2023-07-20T09:14:05;11.40;;;5.72;;
41861;SDS011;27537;57.134;-2.136;2023-07-20T09:16:33;10.75;;;4.93;;
41861;SDS011;27537;57.134;-2.136;2023-07-20T09:19:15;14.77;;;5.20;;
41861;SDS011;27537;57.134;-2.136;2023-07-20T09:21:49;11.52;;;5.43;;
41861;SDS011;27537;57.134;-2.136;2023-07-20T09:24:20;11.60;;;5.25;;
41861;SDS011;27537;57.134;-2.136;2023-07-20T09:26:48;15.27;;;5.93;;
41861;SDS011;27537;57.134;-2.136;2023-07-20T09:29:19;15.38;;;5.32;;
41861;SDS011;27537;57.134;-2.136;2023-07-20T09:32:02;13.77;;;6.07;;
41861;SDS011;27537;57.134;-2.136;2023-07-20T09:34:30;14.05;;;5.75;;
41861;SDS011;27537;57.134;-2.136;2023-07-20T09:39:31;11.30;;;5.75;;
41861;SDS011;27537;57.134;-2.136;2023-07-20T09:42:01;11.98;;;5.38;;
41861;SDS011;27537;57.134;-2.136;2023-07-20T09:47:02;15.18;;;6.65;;
41861;SDS011;27537;57.134;-2.136;2023-07-20T09:49:30;14.77;;;6.63;;
41861;SDS011;27537;57.134;-2.136;2023-07-20T09:52:17;12.63;;;6.25;;
41861;SDS011;27537;57.134;-2.136;2023-07-20T09:55:05;12.32;;;6.05;;
41861;SDS011;27537;57.134;-2.136;2023-07-20T09:57:35;14.05;;;7.35;;
41861;SDS011;27537;57.134;-2.136;2023-07-20T10:00:06;15.25;;;8.38;;
41861;SDS011;27537;57.134;-2.136;2023-07-20T10:02:43;17.70;;;8.38;;
41861;SDS011;27537;57.134;-2.136;2023-07-20T10:05:12;16.13;;;7.40;;
41861;SDS011;27537;57.134;-2.136;2023-07-20T10:07:47;13.77;;;7.40;;
41861;SDS011;27537;57.134;-2.136;2023-07-20T10:10:17;13.55;;;7.20;;
41861;SDS011;27537;57.134;-2.136;2023-07-20T10:12:46;13.70;;;7.05;;
41861;SDS011;27537;57.134;-2.136;2023-07-20T10:15:23;14.63;;;7.57;;
41861;SDS011;27537;57.134;-2.136;2023-07-20T10:21:00;16.77;;;8.00;;
41861;SDS011;27537;57.134;-2.136;2023-07-20T10:23:32;13.50;;;7.18;;
41861;SDS011;27537;57.134;-2.136;2023-07-20T10:25:59;13.68;;;6.63;;
41861;SDS011;27537;57.134;-2.136;2023-07-20T10:28:29;14.95;;;7.88;;
41861;SDS011;27537;57.134;-2.136;2023-07-20T10:30:55;13.93;;;7.60;;
41861;SDS011;27537;57.134;-2.136;2023-07-20T10:33:22;13.32;;;7.93;;
41861;SDS011;27537;57.134;-2.136;2023-07-20T10:35:55;13.70;;;7.70;;
41861;SDS011;27537;57.134;-2.136;2023-07-20T10:38:41;16.17;;;8.50;;
41861;SDS011;27537;57.134;-2.136;2023-07-20T10:41:21;15.35;;;7.30;;
41861;SDS011;27537;57.134;-2.136;2023-07-20T10:43:50;13.63;;;6.93;;
41861;SDS011;27537;57.134;-2.136;2023-07-20T10:49:06;14.18;;;7.85;;
41861;SDS011;27537;57.134;-2.136;2023-07-20T10:51:47;15.13;;;8.18;;
41861;SDS011;27537;57.134;-2.136;2023-07-20T10:56:42;17.30;;;7.85;;
41861;SDS011;27537;57.134;-2.136;2023-07-20T11:01:54;14.98;;;7.03;;
41861;SDS011;27537;57.134;-2.136;2023-07-20T11:04:39;13.73;;;7.30;;
41861;SDS011;27537;57.134;-2.136;2023-07-20T11:07:07;14.18;;;6.93;;
41861;SDS011;27537;57.134;-2.136;2023-07-20T11:09:34;13.18;;;7.05;;
41861;SDS011;27537;57.134;-2.136;2023-07-20T11:14:44;12.27;;;6.40;;
41861;SDS011;27537;57.134;-2.136;2023-07-20T11:17:20;12.00;;;6.20;;
41861;SDS011;27537;57.134;-2.136;2023-07-20T11:19:49;14.50;;;6.70;;
41861;SDS011;27537;57.134;-2.136;2023-07-20T11:22:18;14.85;;;6.93;;
41861;SDS011;27537;57.134;-2.136;2023-07-20T11:24:46;12.90;;;6.10;;
41861;SDS011;27537;57.134;-2.136;2023-07-20T11:27:13;13.52;;;7.03;;
41861;SDS011;27537;57.134;-2.136;2023-07-20T11:29:39;13.95;;;7.68;;
41861;SDS011;27537;57.134;-2.136;2023-07-20T11:32:06;14.32;;;7.03;;
41861;SDS011;27537;57.134;-2.136;2023-07-20T11:34:34;13.60;;;7.25;;
41861;SDS011;27537;57.134;-2.136;2023-07-20T11:37:01;13.93;;;7.50;;
41861;SDS011;27537;57.134;-2.136;2023-07-20T11:39:33;14.50;;;7.13;;
41861;SDS011;27537;57.134;-2.136;2023-07-20T11:41:59;12.30;;;6.40;;
41861;SDS011;27537;57.134;-2.136;2023-07-20T11:44:26;12.95;;;7.00;;
41861;SDS011;27537;57.134;-2.136;2023-07-20T11:47:10;13.48;;;6.85;;
41861;SDS011;27537;57.134;-2.136;2023-07-20T11:49:42;13.38;;;6.95;;
41861;SDS011;27537;57.134;-2.136;2023-07-20T11:52:10;12.35;;;5.72;;
41861;SDS011;27537;57.134;-2.136;2023-07-20T11:54:42;12.70;;;6.95;;
41861;SDS011;27537;57.134;-2.136;2023-07-20T11:57:20;12.35;;;6.90;;
41861;SDS011;27537;57.134;-2.136;2023-07-20T11:59:57;13.05;;;6.47;;
41861;SDS011;27537;57.134;-2.136;2023-07-20T12:02:30;15.45;;;7.32;;
41861;SDS011;27537;57.134;-2.136;2023-07-20T12:04:58;16.23;;;8.00;;
41861;SDS011;27537;57.134;-2.136;2023-07-20T12:07:28;15.40;;;7.10;;
41861;SDS011;27537;57.134;-2.136;2023-07-20T12:10:10;13.35;;;7.50;;
41861;SDS011;27537;57.134;-2.136;2023-07-20T12:15:23;13.80;;;7.75;;
41861;SDS011;27537;57.134;-2.136;2023-07-20T12:17:57;14.02;;;7.80;;
41861;SDS011;27537;57.134;-2.136;2023-07-20T12:20:35;14.48;;;6.93;;
41861;SDS011;27537;57.134;-2.136;2023-07-20T12:23:04;14.63;;;6.95;;
41861;SDS011;27537;57.134;-2.136;2023-07-20T12:25:41;13.38;;;6.07;;
41861;SDS011;27537;57.134;-2.136;2023-07-20T12:28:10;12.00;;;5.63;;
41861;SDS011;27537;57.134;-2.136;2023-07-20T12:30:38;12.65;;;5.43;;
41861;SDS011;27537;57.134;-2.136;2023-07-20T12:33:06;10.02;;;4.90;;
41861;SDS011;27537;57.134;-2.136;2023-07-20T12:35:33;14.98;;;5.63;;
41861;SDS011;27537;57.134;-2.136;2023-07-20T12:38:00;10.02;;;4.50;;
41861;SDS011;27537;57.134;-2.136;2023-07-20T12:40:27;12.20;;;4.75;;
41861;SDS011;27537;57.134;-2.136;2023-07-20T12:42:54;9.80;;;4.32;;
41861;SDS011;27537;57.134;-2.136;2023-07-20T12:45:21;9.45;;;4.20;;
41861;SDS011;27537;57.134;-2.136;2023-07-20T12:47:48;9.98;;;4.50;;
41861;SDS011;27537;57.134;-2.136;2023-07-20T12:50:15;9.65;;;4.03;;
41861;SDS011;27537;57.134;-2.136;2023-07-20T12:52:42;9.93;;;4.07;;
41861;SDS011;27537;57.134;-2.136;2023-07-20T12:55:09;10.20;;;3.75;;
41861;SDS011;27537;57.134;-2.136;2023-07-20T12:57:36;10.82;;;3.88;;
41861;SDS011;27537;57.134;-2.136;2023-07-20T13:00:04;10.40;;;4.03;;
41861;SDS011;27537;57.134;-2.136;2023-07-20T13:02:34;10.00;;;4.00;;
41861;SDS011;27537;57.134;-2.136;2023-07-20T13:05:02;9.45;;;3.47;;
41861;SDS011;27537;57.134;-2.136;2023-07-20T13:07:39;9.70;;;4.13;;
41861;SDS011;27537;57.134;-2.136;2023-07-20T13:10:09;9.10;;;3.75;;
41861;SDS011;27537;57.134;-2.136;2023-07-20T13:12:37;9.18;;;4.13;;
41861;SDS011;27537;57.134;-2.136;2023-07-20T13:15:08;9.18;;;4.10;;
41861;SDS011;27537;57.134;-2.136;2023-07-20T13:17:36;9.25;;;3.85;;
41861;SDS011;27537;57.134;-2.136;2023-07-20T13:20:04;9.55;;;3.83;;
41861;SDS011;27537;57.134;-2.136;2023-07-20T13:22:34;9.20;;;3.50;;
41861;SDS011;27537;57.134;-2.136;2023-07-20T13:25:01;10.85;;;3.42;;
41861;SDS011;27537;57.134;-2.136;2023-07-20T13:27:28;9.40;;;2.72;;
41861;SDS011;27537;57.134;-2.136;2023-07-20T13:29:58;7.95;;;3.08;;
41861;SDS011;27537;57.134;-2.136;2023-07-20T13:32:26;11.77;;;3.30;;
41861;SDS011;27537;57.134;-2.136;2023-07-20T13:34:56;10.00;;;3.60;;
41861;SDS011;27537;57.134;-2.136;2023-07-20T13:37:23;9.02;;;3.28;;
41861;SDS011;27537;57.134;-2.136;2023-07-20T13:39:51;6.20;;;2.13;;
41861;SDS011;27537;57.134;-2.136;2023-07-20T13:42:18;8.02;;;2.80;;
41861;SDS011;27537;57.134;-2.136;2023-07-20T13:44:45;7.60;;;2.83;;
41861;SDS011;27537;57.134;-2.136;2023-07-20T13:47:12;7.63;;;2.60;;
41861;SDS011;27537;57.134;-2.136;2023-07-20T13:49:43;8.07;;;3.03;;
41861;SDS011;27537;57.134;-2.136;2023-07-20T13:52:13;7.20;;;2.50;;
41861;SDS011;27537;57.134;-2.136;2023-07-20T13:54:43;9.43;;;3.08;;
41861;SDS011;27537;57.134;-2.136;2023-07-20T13:57:13;7.20;;;2.55;;
41861;SDS011;27537;57.134;-2.136;2023-07-20T13:59:41;7.63;;;2.78;;
41861;SDS011;27537;57.134;-2.136;2023-07-20T14:02:08;7.53;;;2.47;;
41861;SDS011;27537;57.134;-2.136;2023-07-20T14:04:38;6.40;;;2.35;;
41861;SDS011;27537;57.134;-2.136;2023-07-20T14:07:05;7.75;;;2.80;;
41861;SDS011;27537;57.134;-2.136;2023-07-20T14:09:32;8.18;;;2.95;;
41861;SDS011;27537;57.134;-2.136;2023-07-20T14:11:59;7.55;;;3.08;;
41861;SDS011;27537;57.134;-2.136;2023-07-20T14:14:28;7.38;;;2.65;;
41861;SDS011;27537;57.134;-2.136;2023-07-20T14:16:55;8.80;;;2.97;;
41861;SDS011;27537;57.134;-2.136;2023-07-20T14:19:22;8.27;;;3.30;;
41861;SDS011;27537;57.134;-2.136;2023-07-20T14:21:49;7.30;;;2.40;;
41861;SDS011;27537;57.134;-2.136;2023-07-20T14:24:16;8.75;;;3.00;;
41861;SDS011;27537;57.134;-2.136;2023-07-20T14:26:44;8.45;;;2.75;;
41861;SDS011;27537;57.134;-2.136;2023-07-20T14:29:12;6.95;;;2.40;;
41861;SDS011;27537;57.134;-2.136;2023-07-20T14:31:39;9.23;;;3.05;;
41861;SDS011;27537;57.134;-2.136;2023-07-20T14:34:06;6.88;;;2.55;;
41861;SDS011;27537;57.134;-2.136;2023-07-20T14:36:33;8.82;;;3.20;;
41861;SDS011;27537;57.134;-2.136;2023-07-20T14:39:00;10.10;;;3.90;;
41861;SDS011;27537;57.134;-2.136;2023-07-20T14:41:27;10.80;;;4.18;;
41861;SDS011;27537;57.134;-2.136;2023-07-20T14:43:54;10.40;;;4.25;;
41861;SDS011;27537;57.134;-2.136;2023-07-20T14:46:23;10.63;;;4.45;;
41861;SDS011;27537;57.134;-2.136;2023-07-20T14:48:50;7.68;;;3.15;;
41861;SDS011;27537;57.134;-2.136;2023-07-20T14:51:18;11.20;;;3.67;;
41861;SDS011;27537;57.134;-2.136;2023-07-20T14:53:45;10.70;;;3.92;;
41861;SDS011;27537;57.134;-2.136;2023-07-20T14:56:11;12.10;;;5.32;;
41861;SDS011;27537;57.134;-2.136;2023-07-20T14:58:38;9.25;;;3.95;;
41861;SDS011;27537;57.134;-2.136;2023-07-20T15:01:05;10.60;;;4.80;;
41861;SDS011;27537;57.134;-2.136;2023-07-20T15:03:31;10.15;;;4.60;;
41861;SDS011;27537;57.134;-2.136;2023-07-20T15:05:58;9.85;;;4.05;;